sensor_id;sensor_type;location;lat;lon;timestamp;P1;durP1;ratioP1;P2;durP2;ratioP2
70247;SDS011;57641;51.416;5.506;2022-12-07T00:01:40;12.40;;;8.20;;
70247;SDS011;57641;51.416;5.506;2022-12-07T00:04:09;15.43;;;8.27;;
70247;SDS011;57641;51.416;5.506;2022-12-07T00:06:43;14.05;;;7.20;;
70247;SDS011;57641;51.416;5.506;2022-12-07T00:09:15;14.70;;;8.57;;
70247;SDS011;57641;51.416;5.506;2022-12-07T00:11:42;14.52;;;7.97;;
70247;SDS011;57641;51.416;5.506;2022-12-07T00:14:15;15.23;;;8.68;;
70247;SDS011;57641;51.416;5.506;2022-12-07T00:16:43;11.18;;;7.30;;
70247;SDS011;57641;51.416;5.506;2022-12-07T00:19:09;11.88;;;6.45;;
70247;SDS011;57641;51.416;5.506;2022-12-07T00:21:36;13.43;;;8.35;;
70247;SDS011;57641;51.416;5.506;2022-12-07T00:24:03;9.95;;;7.00;;
70247;SDS011;57641;51.416;5.506;2022-12-07T00:26:34;11.82;;;7.03;;
70247;SDS011;57641;51.416;5.506;2022-12-07T00:29:17;16.52;;;9.38;;
70247;SDS011;57641;51.416;5.506;2022-12-07T00:31:44;9.73;;;7.03;;
70247;SDS011;57641;51.416;5.506;2022-12-07T00:34:15;13.90;;;8.13;;
70247;SDS011;57641;51.416;5.506;2022-12-07T00:36:42;10.32;;;6.45;;
70247;SDS011;57641;51.416;5.506;2022-12-07T00:39:08;10.02;;;6.10;;
70247;SDS011;57641;51.416;5.506;2022-12-07T00:41:37;11.75;;;6.13;;
70247;SDS011;57641;51.416;5.506;2022-12-07T00:44:02;9.98;;;6.32;;
70247;SDS011;57641;51.416;5.506;2022-12-07T00:46:29;10.13;;;6.88;;
70247;SDS011;57641;51.416;5.506;2022-12-07T00:48:55;10.20;;;6.53;;
70247;SDS011;57641;51.416;5.506;2022-12-07T00:51:21;9.88;;;7.20;;
70247;SDS011;57641;51.416;5.506;2022-12-07T00:53:48;11.70;;;7.25;;
70247;SDS011;57641;51.416;5.506;2022-12-07T00:56:18;9.75;;;6.10;;
70247;SDS011;57641;51.416;5.506;2022-12-07T00:58:53;9.18;;;5.75;;
70247;SDS011;57641;51.416;5.506;2022-12-07T01:01:21;14.88;;;7.75;;
70247;SDS011;57641;51.416;5.506;2022-12-07T01:03:47;14.13;;;7.95;;
70247;SDS011;57641;51.416;5.506;2022-12-07T01:06:16;13.57;;;6.72;;
70247;SDS011;57641;51.416;5.506;2022-12-07T01:08:43;10.43;;;5.93;;
70247;SDS011;57641;51.416;5.506;2022-12-07T01:11:11;7.45;;;5.82;;
70247;SDS011;57641;51.416;5.506;2022-12-07T01:13:39;11.90;;;7.07;;
70247;SDS011;57641;51.416;5.506;2022-12-07T01:16:06;17.63;;;6.78;;
70247;SDS011;57641;51.416;5.506;2022-12-07T01:18:34;13.70;;;7.68;;
70247;SDS011;57641;51.416;5.506;2022-12-07T01:21:05;9.63;;;6.40;;
70247;SDS011;57641;51.416;5.506;2022-12-07T01:23:33;11.45;;;6.75;;
70247;SDS011;57641;51.416;5.506;2022-12-07T01:26:01;11.40;;;6.80;;
70247;SDS011;57641;51.416;5.506;2022-12-07T01:28:30;9.52;;;6.28;;
70247;SDS011;57641;51.416;5.506;2022-12-07T01:30:59;8.52;;;5.97;;
70247;SDS011;57641;51.416;5.506;2022-12-07T01:33:30;10.88;;;7.05;;
70247;SDS011;57641;51.416;5.506;2022-12-07T01:36:02;9.13;;;5.70;;
70247;SDS011;57641;51.416;5.506;2022-12-07T01:38:33;9.65;;;5.93;;
70247;SDS011;57641;51.416;5.506;2022-12-07T01:40:59;7.55;;;5.97;;
70247;SDS011;57641;51.416;5.506;2022-12-07T01:43:27;12.30;;;6.13;;
70247;SDS011;57641;51.416;5.506;2022-12-07T01:45:55;11.15;;;5.75;;
70247;SDS011;57641;51.416;5.506;2022-12-07T01:48:22;11.75;;;6.55;;
70247;SDS011;57641;51.416;5.506;2022-12-07T01:50:54;11.77;;;7.60;;
70247;SDS011;57641;51.416;5.506;2022-12-07T01:53:23;12.25;;;7.22;;
70247;SDS011;57641;51.416;5.506;2022-12-07T01:55:52;9.75;;;6.90;;
70247;SDS011;57641;51.416;5.506;2022-12-07T01:58:18;11.13;;;7.47;;
70247;SDS011;57641;51.416;5.506;2022-12-07T02:00:44;9.73;;;7.53;;
70247;SDS011;57641;51.416;5.506;2022-12-07T02:03:15;8.23;;;6.00;;
70247;SDS011;57641;51.416;5.506;2022-12-07T02:05:43;10.05;;;6.32;;
70247;SDS011;57641;51.416;5.506;2022-12-07T02:08:10;14.27;;;8.25;;
70247;SDS011;57641;51.416;5.506;2022-12-07T02:10:37;10.65;;;6.93;;
70247;SDS011;57641;51.416;5.506;2022-12-07T02:13:04;12.48;;;8.23;;
70247;SDS011;57641;51.416;5.506;2022-12-07T02:18:30;9.15;;;6.57;;
70247;SDS011;57641;51.416;5.506;2022-12-07T02:24:31;8.57;;;5.75;;
70247;SDS011;57641;51.416;5.506;2022-12-07T02:27:46;9.43;;;5.68;;
70247;SDS011;57641;51.416;5.506;2022-12-07T02:30:40;10.98;;;6.63;;
70247;SDS011;57641;51.416;5.506;2022-12-07T02:33:16;10.15;;;7.03;;
70247;SDS011;57641;51.416;5.506;2022-12-07T02:35:59;8.52;;;5.50;;
70247;SDS011;57641;51.416;5.506;2022-12-07T02:38:31;12.75;;;6.68;;
70247;SDS011;57641;51.416;5.506;2022-12-07T02:41:07;8.98;;;6.70;;
70247;SDS011;57641;51.416;5.506;2022-12-07T02:43:44;15.02;;;6.30;;
70247;SDS011;57641;51.416;5.506;2022-12-07T02:46:17;8.93;;;5.43;;
70247;SDS011;57641;51.416;5.506;2022-12-07T02:48:47;9.30;;;6.28;;
70247;SDS011;57641;51.416;5.506;2022-12-07T02:51:13;8.85;;;5.07;;
70247;SDS011;57641;51.416;5.506;2022-12-07T02:53:40;8.10;;;5.32;;
70247;SDS011;57641;51.416;5.506;2022-12-07T02:58:46;8.40;;;5.43;;
70247;SDS011;57641;51.416;5.506;2022-12-07T03:02:13;10.30;;;5.70;;
70247;SDS011;57641;51.416;5.506;2022-12-07T03:07:11;8.27;;;4.88;;
70247;SDS011;57641;51.416;5.506;2022-12-07T03:10:08;10.48;;;5.25;;
70247;SDS011;57641;51.416;5.506;2022-12-07T03:12:43;7.30;;;5.22;;
70247;SDS011;57641;51.416;5.506;2022-12-07T03:15:23;9.88;;;4.75;;
70247;SDS011;57641;51.416;5.506;2022-12-07T03:17:54;8.25;;;5.05;;
70247;SDS011;57641;51.416;5.506;2022-12-07T03:20:25;13.45;;;6.63;;
70247;SDS011;57641;51.416;5.506;2022-12-07T03:22:54;7.88;;;4.97;;
70247;SDS011;57641;51.416;5.506;2022-12-07T03:25:20;9.35;;;5.13;;
70247;SDS011;57641;51.416;5.506;2022-12-07T03:27:57;8.65;;;6.07;;
70247;SDS011;57641;51.416;5.506;2022-12-07T03:30:49;5.90;;;4.32;;
70247;SDS011;57641;51.416;5.506;2022-12-07T03:33:44;8.48;;;4.60;;
70247;SDS011;57641;51.416;5.506;2022-12-07T03:36:24;6.90;;;4.53;;
70247;SDS011;57641;51.416;5.506;2022-12-07T03:39:21;9.40;;;4.28;;
70247;SDS011;57641;51.416;5.506;2022-12-07T03:41:52;7.00;;;4.13;;
70247;SDS011;57641;51.416;5.506;2022-12-07T03:44:20;6.03;;;4.15;;
70247;SDS011;57641;51.416;5.506;2022-12-07T03:46:50;9.63;;;5.45;;
70247;SDS011;57641;51.416;5.506;2022-12-07T03:49:25;7.70;;;4.65;;
70247;SDS011;57641;51.416;5.506;2022-12-07T03:52:10;7.97;;;4.32;;
70247;SDS011;57641;51.416;5.506;2022-12-07T03:57:34;8.93;;;4.05;;
70247;SDS011;57641;51.416;5.506;2022-12-07T04:00:03;11.30;;;5.28;;
70247;SDS011;57641;51.416;5.506;2022-12-07T04:02:33;8.45;;;4.50;;
70247;SDS011;57641;51.416;5.506;2022-12-07T04:04:59;7.25;;;4.60;;
70247;SDS011;57641;51.416;5.506;2022-12-07T04:07:28;8.98;;;4.57;;
70247;SDS011;57641;51.416;5.506;2022-12-07T04:09:54;7.80;;;4.78;;
70247;SDS011;57641;51.416;5.506;2022-12-07T04:12:22;6.13;;;4.07;;
70247;SDS011;57641;51.416;5.506;2022-12-07T04:14:48;10.30;;;4.85;;
70247;SDS011;57641;51.416;5.506;2022-12-07T04:17:14;6.60;;;5.10;;
70247;SDS011;57641;51.416;5.506;2022-12-07T04:19:40;10.63;;;5.53;;
70247;SDS011;57641;51.416;5.506;2022-12-07T04:22:06;9.95;;;4.57;;
70247;SDS011;57641;51.416;5.506;2022-12-07T04:24:33;8.23;;;4.47;;
70247;SDS011;57641;51.416;5.506;2022-12-07T04:27:00;8.95;;;5.40;;
70247;SDS011;57641;51.416;5.506;2022-12-07T04:29:26;7.97;;;5.18;;
70247;SDS011;57641;51.416;5.506;2022-12-07T04:31:51;9.40;;;4.75;;
70247;SDS011;57641;51.416;5.506;2022-12-07T04:34:20;9.30;;;4.82;;
70247;SDS011;57641;51.416;5.506;2022-12-07T04:36:46;8.13;;;4.95;;
70247;SDS011;57641;51.416;5.506;2022-12-07T04:39:20;8.57;;;4.97;;
70247;SDS011;57641;51.416;5.506;2022-12-07T04:41:50;12.65;;;4.72;;
70247;SDS011;57641;51.416;5.506;2022-12-07T04:44:17;6.85;;;4.80;;
70247;SDS011;57641;51.416;5.506;2022-12-07T04:46:44;9.60;;;4.35;;
70247;SDS011;57641;51.416;5.506;2022-12-07T04:49:11;9.65;;;5.03;;
70247;SDS011;57641;51.416;5.506;2022-12-07T04:51:37;9.45;;;4.55;;
70247;SDS011;57641;51.416;5.506;2022-12-07T04:54:06;10.82;;;5.00;;
70247;SDS011;57641;51.416;5.506;2022-12-07T04:56:31;9.73;;;4.68;;
70247;SDS011;57641;51.416;5.506;2022-12-07T04:59:00;9.90;;;5.63;;
70247;SDS011;57641;51.416;5.506;2022-12-07T05:01:30;9.35;;;4.25;;
70247;SDS011;57641;51.416;5.506;2022-12-07T05:03:56;8.30;;;4.95;;
70247;SDS011;57641;51.416;5.506;2022-12-07T05:06:22;9.73;;;4.88;;
70247;SDS011;57641;51.416;5.506;2022-12-07T05:08:48;10.00;;;4.93;;
70247;SDS011;57641;51.416;5.506;2022-12-07T05:11:16;7.18;;;5.00;;
70247;SDS011;57641;51.416;5.506;2022-12-07T05:14:05;9.25;;;4.90;;
70247;SDS011;57641;51.416;5.506;2022-12-07T05:16:34;7.63;;;4.55;;
70247;SDS011;57641;51.416;5.506;2022-12-07T05:19:00;9.43;;;4.97;;
70247;SDS011;57641;51.416;5.506;2022-12-07T05:21:28;11.27;;;5.57;;
70247;SDS011;57641;51.416;5.506;2022-12-07T05:23:54;10.32;;;4.75;;
70247;SDS011;57641;51.416;5.506;2022-12-07T05:26:19;9.68;;;4.95;;
70247;SDS011;57641;51.416;5.506;2022-12-07T05:28:45;6.70;;;3.88;;
70247;SDS011;57641;51.416;5.506;2022-12-07T05:31:14;9.68;;;5.43;;
70247;SDS011;57641;51.416;5.506;2022-12-07T05:33:40;7.53;;;5.00;;
70247;SDS011;57641;51.416;5.506;2022-12-07T05:36:05;7.80;;;4.22;;
70247;SDS011;57641;51.416;5.506;2022-12-07T05:38:32;9.43;;;4.35;;
70247;SDS011;57641;51.416;5.506;2022-12-07T05:41:02;6.25;;;3.70;;
70247;SDS011;57641;51.416;5.506;2022-12-07T05:43:29;8.98;;;4.10;;
70247;SDS011;57641;51.416;5.506;2022-12-07T05:45:56;5.50;;;3.85;;
70247;SDS011;57641;51.416;5.506;2022-12-07T05:48:21;9.32;;;4.45;;
70247;SDS011;57641;51.416;5.506;2022-12-07T05:50:47;6.13;;;4.15;;
70247;SDS011;57641;51.416;5.506;2022-12-07T05:53:18;5.65;;;3.30;;
70247;SDS011;57641;51.416;5.506;2022-12-07T05:55:44;6.13;;;3.25;;
70247;SDS011;57641;51.416;5.506;2022-12-07T05:58:13;5.38;;;3.38;;
70247;SDS011;57641;51.416;5.506;2022-12-07T06:00:57;6.13;;;3.53;;
70247;SDS011;57641;51.416;5.506;2022-12-07T06:03:23;6.93;;;3.47;;
70247;SDS011;57641;51.416;5.506;2022-12-07T06:05:48;7.40;;;3.55;;
70247;SDS011;57641;51.416;5.506;2022-12-07T06:08:14;12.18;;;3.90;;
70247;SDS011;57641;51.416;5.506;2022-12-07T06:10:41;8.32;;;3.60;;
70247;SDS011;57641;51.416;5.506;2022-12-07T06:13:08;10.15;;;3.65;;
70247;SDS011;57641;51.416;5.506;2022-12-07T06:15:37;7.15;;;3.58;;
70247;SDS011;57641;51.416;5.506;2022-12-07T06:18:03;5.88;;;3.33;;
70247;SDS011;57641;51.416;5.506;2022-12-07T06:20:29;7.07;;;3.20;;
70247;SDS011;57641;51.416;5.506;2022-12-07T06:22:55;7.53;;;3.10;;
70247;SDS011;57641;51.416;5.506;2022-12-07T06:25:20;6.55;;;2.83;;
70247;SDS011;57641;51.416;5.506;2022-12-07T06:27:46;6.07;;;3.28;;
70247;SDS011;57641;51.416;5.506;2022-12-07T06:30:12;7.68;;;3.92;;
70247;SDS011;57641;51.416;5.506;2022-12-07T06:32:37;7.03;;;3.45;;
70247;SDS011;57641;51.416;5.506;2022-12-07T06:35:03;6.88;;;3.40;;
70247;SDS011;57641;51.416;5.506;2022-12-07T06:37:29;5.13;;;2.60;;
70247;SDS011;57641;51.416;5.506;2022-12-07T06:39:55;3.90;;;2.78;;
70247;SDS011;57641;51.416;5.506;2022-12-07T06:42:21;4.85;;;3.10;;
70247;SDS011;57641;51.416;5.506;2022-12-07T06:44:46;6.68;;;3.17;;
70247;SDS011;57641;51.416;5.506;2022-12-07T06:47:12;6.80;;;3.53;;
70247;SDS011;57641;51.416;5.506;2022-12-07T06:49:37;5.88;;;3.35;;
70247;SDS011;57641;51.416;5.506;2022-12-07T06:52:03;13.55;;;4.97;;
70247;SDS011;57641;51.416;5.506;2022-12-07T06:54:29;10.05;;;4.57;;
70247;SDS011;57641;51.416;5.506;2022-12-07T06:56:55;6.85;;;4.05;;
70247;SDS011;57641;51.416;5.506;2022-12-07T06:59:20;7.90;;;4.40;;
70247;SDS011;57641;51.416;5.506;2022-12-07T07:01:46;7.28;;;3.78;;
70247;SDS011;57641;51.416;5.506;2022-12-07T07:04:11;12.40;;;6.13;;
70247;SDS011;57641;51.416;5.506;2022-12-07T07:06:37;12.25;;;6.20;;
70247;SDS011;57641;51.416;5.506;2022-12-07T07:09:03;9.70;;;6.30;;
70247;SDS011;57641;51.416;5.506;2022-12-07T07:11:28;13.48;;;7.13;;
70247;SDS011;57641;51.416;5.506;2022-12-07T07:13:54;15.93;;;7.28;;
70247;SDS011;57641;51.416;5.506;2022-12-07T07:16:22;17.55;;;9.55;;
70247;SDS011;57641;51.416;5.506;2022-12-07T07:18:49;14.45;;;6.30;;
70247;SDS011;57641;51.416;5.506;2022-12-07T07:21:15;9.10;;;5.28;;
70247;SDS011;57641;51.416;5.506;2022-12-07T07:23:40;10.98;;;5.38;;
70247;SDS011;57641;51.416;5.506;2022-12-07T07:26:06;8.10;;;4.50;;
70247;SDS011;57641;51.416;5.506;2022-12-07T07:28:32;10.75;;;5.53;;
70247;SDS011;57641;51.416;5.506;2022-12-07T07:30:57;10.15;;;4.70;;
70247;SDS011;57641;51.416;5.506;2022-12-07T07:33:24;9.13;;;5.15;;
70247;SDS011;57641;51.416;5.506;2022-12-07T07:35:49;8.68;;;4.95;;
70247;SDS011;57641;51.416;5.506;2022-12-07T07:38:14;8.95;;;5.75;;
70247;SDS011;57641;51.416;5.506;2022-12-07T07:40:40;8.50;;;5.05;;
70247;SDS011;57641;51.416;5.506;2022-12-07T07:43:06;17.27;;;5.30;;
70247;SDS011;57641;51.416;5.506;2022-12-07T07:45:32;9.10;;;4.75;;
70247;SDS011;57641;51.416;5.506;2022-12-07T07:47:57;9.20;;;4.97;;
70247;SDS011;57641;51.416;5.506;2022-12-07T07:50:23;10.93;;;5.45;;
70247;SDS011;57641;51.416;5.506;2022-12-07T07:52:48;11.10;;;5.28;;
70247;SDS011;57641;51.416;5.506;2022-12-07T07:55:14;13.02;;;6.43;;
70247;SDS011;57641;51.416;5.506;2022-12-07T07:57:39;8.02;;;5.85;;
70247;SDS011;57641;51.416;5.506;2022-12-07T08:00:10;13.35;;;6.18;;
70247;SDS011;57641;51.416;5.506;2022-12-07T08:02:38;9.85;;;6.22;;
70247;SDS011;57641;51.416;5.506;2022-12-07T08:05:07;10.45;;;6.43;;
70247;SDS011;57641;51.416;5.506;2022-12-07T08:07:34;12.30;;;6.07;;
70247;SDS011;57641;51.416;5.506;2022-12-07T08:10:00;13.32;;;6.70;;
70247;SDS011;57641;51.416;5.506;2022-12-07T08:12:25;10.90;;;6.47;;
70247;SDS011;57641;51.416;5.506;2022-12-07T08:14:51;11.25;;;6.82;;
70247;SDS011;57641;51.416;5.506;2022-12-07T08:17:17;14.60;;;7.32;;
70247;SDS011;57641;51.416;5.506;2022-12-07T08:19:43;12.32;;;7.43;;
70247;SDS011;57641;51.416;5.506;2022-12-07T08:22:08;12.77;;;7.00;;
70247;SDS011;57641;51.416;5.506;2022-12-07T08:24:34;11.15;;;6.75;;
70247;SDS011;57641;51.416;5.506;2022-12-07T08:27:01;14.10;;;7.47;;
70247;SDS011;57641;51.416;5.506;2022-12-07T08:29:28;17.23;;;6.72;;
70247;SDS011;57641;51.416;5.506;2022-12-07T08:31:55;9.77;;;6.07;;
70247;SDS011;57641;51.416;5.506;2022-12-07T08:34:21;15.90;;;7.95;;
70247;SDS011;57641;51.416;5.506;2022-12-07T08:36:46;12.55;;;6.55;;
70247;SDS011;57641;51.416;5.506;2022-12-07T08:39:12;12.38;;;6.40;;
70247;SDS011;57641;51.416;5.506;2022-12-07T08:41:37;16.30;;;6.85;;
70247;SDS011;57641;51.416;5.506;2022-12-07T08:44:06;11.77;;;6.90;;
70247;SDS011;57641;51.416;5.506;2022-12-07T08:46:48;13.13;;;6.43;;
70247;SDS011;57641;51.416;5.506;2022-12-07T08:49:34;16.13;;;7.75;;
70247;SDS011;57641;51.416;5.506;2022-12-07T08:52:04;15.43;;;7.00;;
70247;SDS011;57641;51.416;5.506;2022-12-07T08:54:32;14.80;;;6.28;;
70247;SDS011;57641;51.416;5.506;2022-12-07T08:57:01;10.80;;;6.00;;
70247;SDS011;57641;51.416;5.506;2022-12-07T08:59:27;11.45;;;6.30;;
70247;SDS011;57641;51.416;5.506;2022-12-07T09:01:54;14.45;;;5.90;;
70247;SDS011;57641;51.416;5.506;2022-12-07T09:04:19;13.57;;;6.18;;
70247;SDS011;57641;51.416;5.506;2022-12-07T09:06:45;15.98;;;6.30;;
70247;SDS011;57641;51.416;5.506;2022-12-07T09:09:11;10.35;;;6.03;;
70247;SDS011;57641;51.416;5.506;2022-12-07T09:11:38;12.35;;;5.95;;
70247;SDS011;57641;51.416;5.506;2022-12-07T09:14:05;11.82;;;6.28;;
70247;SDS011;57641;51.416;5.506;2022-12-07T09:16:30;13.52;;;5.90;;
70247;SDS011;57641;51.416;5.506;2022-12-07T09:18:56;11.23;;;5.85;;
70247;SDS011;57641;51.416;5.506;2022-12-07T09:21:21;13.20;;;6.70;;
70247;SDS011;57641;51.416;5.506;2022-12-07T09:23:47;10.18;;;5.45;;
70247;SDS011;57641;51.416;5.506;2022-12-07T09:26:13;13.10;;;5.50;;
70247;SDS011;57641;51.416;5.506;2022-12-07T09:28:39;10.02;;;6.22;;
70247;SDS011;57641;51.416;5.506;2022-12-07T09:31:05;8.45;;;5.38;;
70247;SDS011;57641;51.416;5.506;2022-12-07T09:33:31;11.55;;;5.97;;
70247;SDS011;57641;51.416;5.506;2022-12-07T09:35:57;10.65;;;5.68;;
70247;SDS011;57641;51.416;5.506;2022-12-07T09:38:23;9.63;;;5.00;;
70247;SDS011;57641;51.416;5.506;2022-12-07T09:40:52;9.50;;;5.00;;
70247;SDS011;57641;51.416;5.506;2022-12-07T09:43:21;13.45;;;5.22;;
70247;SDS011;57641;51.416;5.506;2022-12-07T09:45:49;13.63;;;5.03;;
70247;SDS011;57641;51.416;5.506;2022-12-07T09:48:22;7.65;;;4.32;;
70247;SDS011;57641;51.416;5.506;2022-12-07T09:50:54;11.40;;;5.80;;
70247;SDS011;57641;51.416;5.506;2022-12-07T09:53:30;9.43;;;4.93;;
70247;SDS011;57641;51.416;5.506;2022-12-07T09:56:00;8.70;;;4.75;;
70247;SDS011;57641;51.416;5.506;2022-12-07T09:58:28;6.93;;;4.07;;
70247;SDS011;57641;51.416;5.506;2022-12-07T10:03:33;9.05;;;4.47;;
70247;SDS011;57641;51.416;5.506;2022-12-07T10:06:04;10.38;;;5.28;;
70247;SDS011;57641;51.416;5.506;2022-12-07T10:08:31;10.32;;;5.18;;
70247;SDS011;57641;51.416;5.506;2022-12-07T10:10:58;11.23;;;5.65;;
70247;SDS011;57641;51.416;5.506;2022-12-07T10:16:05;8.98;;;4.47;;
70247;SDS011;57641;51.416;5.506;2022-12-07T10:18:53;10.00;;;5.30;;
70247;SDS011;57641;51.416;5.506;2022-12-07T10:21:26;9.13;;;4.50;;
70247;SDS011;57641;51.416;5.506;2022-12-07T10:24:13;6.78;;;4.03;;
70247;SDS011;57641;51.416;5.506;2022-12-07T10:26:52;8.07;;;4.20;;
70247;SDS011;57641;51.416;5.506;2022-12-07T10:29:28;8.15;;;3.33;;
70247;SDS011;57641;51.416;5.506;2022-12-07T10:32:00;11.13;;;4.38;;
70247;SDS011;57641;51.416;5.506;2022-12-07T10:34:29;9.25;;;3.85;;
70247;SDS011;57641;51.416;5.506;2022-12-07T10:37:13;9.45;;;4.00;;
70247;SDS011;57641;51.416;5.506;2022-12-07T10:39:49;5.88;;;3.40;;
70247;SDS011;57641;51.416;5.506;2022-12-07T10:44:48;6.40;;;3.90;;
70247;SDS011;57641;51.416;5.506;2022-12-07T10:48:16;12.02;;;3.65;;
70247;SDS011;57641;51.416;5.506;2022-12-07T10:56:21;5.88;;;3.60;;
70247;SDS011;57641;51.416;5.506;2022-12-07T11:13:15;7.80;;;3.65;;
70247;SDS011;57641;51.416;5.506;2022-12-07T11:16:05;6.70;;;3.50;;
70247;SDS011;57641;51.416;5.506;2022-12-07T11:21:48;6.60;;;3.67;;
70247;SDS011;57641;51.416;5.506;2022-12-07T11:24:35;6.88;;;3.58;;
70247;SDS011;57641;51.416;5.506;2022-12-07T11:27:23;10.38;;;3.42;;
70247;SDS011;57641;51.416;5.506;2022-12-07T11:35:38;8.55;;;3.67;;
70247;SDS011;57641;51.416;5.506;2022-12-07T11:38:18;8.35;;;3.42;;
70247;SDS011;57641;51.416;5.506;2022-12-07T11:41:23;12.35;;;3.60;;
70247;SDS011;57641;51.416;5.506;2022-12-07T11:43:56;10.30;;;3.17;;
70247;SDS011;57641;51.416;5.506;2022-12-07T11:46:47;7.35;;;3.55;;
70247;SDS011;57641;51.416;5.506;2022-12-07T11:52:14;8.93;;;3.00;;
70247;SDS011;57641;51.416;5.506;2022-12-07T11:54:46;7.28;;;3.30;;
70247;SDS011;57641;51.416;5.506;2022-12-07T11:57:18;5.70;;;3.10;;
70247;SDS011;57641;51.416;5.506;2022-12-07T11:59:50;7.82;;;2.50;;
70247;SDS011;57641;51.416;5.506;2022-12-07T12:02:31;9.55;;;2.63;;
70247;SDS011;57641;51.416;5.506;2022-12-07T12:05:05;7.07;;;2.72;;
70247;SDS011;57641;51.416;5.506;2022-12-07T12:07:43;4.20;;;2.55;;
70247;SDS011;57641;51.416;5.506;2022-12-07T12:10:16;7.30;;;2.45;;
70247;SDS011;57641;51.416;5.506;2022-12-07T12:13:01;12.63;;;2.70;;
70247;SDS011;57641;51.416;5.506;2022-12-07T12:21:08;5.60;;;1.85;;
70247;SDS011;57641;51.416;5.506;2022-12-07T12:23:40;7.30;;;1.90;;
70247;SDS011;57641;51.416;5.506;2022-12-07T12:26:14;5.78;;;2.00;;
70247;SDS011;57641;51.416;5.506;2022-12-07T12:28:56;5.40;;;1.70;;
70247;SDS011;57641;51.416;5.506;2022-12-07T12:31:33;7.18;;;2.13;;
70247;SDS011;57641;51.416;5.506;2022-12-07T12:34:58;7.35;;;2.25;;
70247;SDS011;57641;51.416;5.506;2022-12-07T12:36:56;5.28;;;2.22;;
70247;SDS011;57641;51.416;5.506;2022-12-07T12:39:21;5.55;;;2.50;;
70247;SDS011;57641;51.416;5.506;2022-12-07T12:51:51;3.78;;;1.30;;
70247;SDS011;57641;51.416;5.506;2022-12-07T12:54:26;4.90;;;1.60;;
70247;SDS011;57641;51.416;5.506;2022-12-07T12:57:05;5.43;;;1.70;;
70247;SDS011;57641;51.416;5.506;2022-12-07T13:23:29;2.17;;;1.23;;
70247;SDS011;57641;51.416;5.506;2022-12-07T13:26:04;4.47;;;1.38;;
70247;SDS011;57641;51.416;5.506;2022-12-07T13:29:01;5.80;;;1.40;;
70247;SDS011;57641;51.416;5.506;2022-12-07T13:34:04;3.15;;;1.30;;
70247;SDS011;57641;51.416;5.506;2022-12-07T13:36:54;3.00;;;1.20;;
70247;SDS011;57641;51.416;5.506;2022-12-07T13:39:21;6.50;;;1.40;;
70247;SDS011;57641;51.416;5.506;2022-12-07T13:41:50;3.28;;;1.75;;
70247;SDS011;57641;51.416;5.506;2022-12-07T13:44:24;3.92;;;1.58;;
70247;SDS011;57641;51.416;5.506;2022-12-07T13:46:53;4.20;;;1.60;;
70247;SDS011;57641;51.416;5.506;2022-12-07T13:49:31;4.22;;;1.48;;
70247;SDS011;57641;51.416;5.506;2022-12-07T13:57:11;2.08;;;1.50;;
70247;SDS011;57641;51.416;5.506;2022-12-07T13:59:37;5.00;;;1.52;;
70247;SDS011;57641;51.416;5.506;2022-12-07T14:02:21;3.30;;;1.70;;
70247;SDS011;57641;51.416;5.506;2022-12-07T14:04:48;3.05;;;1.30;;
70247;SDS011;57641;51.416;5.506;2022-12-07T14:07:34;3.50;;;1.60;;
70247;SDS011;57641;51.416;5.506;2022-12-07T14:10:05;3.65;;;1.63;;
70247;SDS011;57641;51.416;5.506;2022-12-07T14:12:32;3.05;;;1.30;;
70247;SDS011;57641;51.416;5.506;2022-12-07T14:15:01;3.33;;;1.65;;
70247;SDS011;57641;51.416;5.506;2022-12-07T14:17:28;4.55;;;1.60;;
70247;SDS011;57641;51.416;5.506;2022-12-07T14:19:57;3.00;;;1.30;;
70247;SDS011;57641;51.416;5.506;2022-12-07T14:22:29;4.47;;;1.55;;
70247;SDS011;57641;51.416;5.506;2022-12-07T14:25:00;4.55;;;2.30;;
70247;SDS011;57641;51.416;5.506;2022-12-07T14:27:39;2.83;;;1.73;;
70247;SDS011;57641;51.416;5.506;2022-12-07T14:30:16;5.13;;;1.88;;
70247;SDS011;57641;51.416;5.506;2022-12-07T14:32:43;4.00;;;2.05;;
70247;SDS011;57641;51.416;5.506;2022-12-07T14:35:16;3.53;;;1.75;;
70247;SDS011;57641;51.416;5.506;2022-12-07T14:37:44;2.88;;;2.03;;
70247;SDS011;57641;51.416;5.506;2022-12-07T14:40:19;6.18;;;2.08;;
70247;SDS011;57641;51.416;5.506;2022-12-07T14:42:47;5.85;;;2.30;;
70247;SDS011;57641;51.416;5.506;2022-12-07T14:45:20;5.63;;;2.08;;
70247;SDS011;57641;51.416;5.506;2022-12-07T14:47:47;2.65;;;1.60;;
70247;SDS011;57641;51.416;5.506;2022-12-07T14:50:14;6.88;;;2.10;;
70247;SDS011;57641;51.416;5.506;2022-12-07T14:52:42;5.00;;;2.53;;
70247;SDS011;57641;51.416;5.506;2022-12-07T14:55:18;3.83;;;1.90;;
70247;SDS011;57641;51.416;5.506;2022-12-07T14:57:48;5.40;;;2.03;;
70247;SDS011;57641;51.416;5.506;2022-12-07T15:00:14;7.28;;;1.98;;
70247;SDS011;57641;51.416;5.506;2022-12-07T15:02:42;4.82;;;2.28;;
70247;SDS011;57641;51.416;5.506;2022-12-07T15:05:08;3.72;;;1.95;;
70247;SDS011;57641;51.416;5.506;2022-12-07T15:07:34;8.20;;;2.22;;
70247;SDS011;57641;51.416;5.506;2022-12-07T15:09:59;7.90;;;2.38;;
70247;SDS011;57641;51.416;5.506;2022-12-07T15:12:25;3.10;;;2.10;;
70247;SDS011;57641;51.416;5.506;2022-12-07T15:14:50;5.05;;;2.17;;
70247;SDS011;57641;51.416;5.506;2022-12-07T15:17:16;4.53;;;1.90;;
70247;SDS011;57641;51.416;5.506;2022-12-07T15:19:41;6.38;;;2.80;;
70247;SDS011;57641;51.416;5.506;2022-12-07T15:22:07;4.15;;;2.03;;
70247;SDS011;57641;51.416;5.506;2022-12-07T15:24:36;4.18;;;1.77;;
70247;SDS011;57641;51.416;5.506;2022-12-07T15:27:02;4.30;;;1.67;;
70247;SDS011;57641;51.416;5.506;2022-12-07T15:29:28;2.42;;;1.60;;
70247;SDS011;57641;51.416;5.506;2022-12-07T15:31:57;4.55;;;2.03;;
70247;SDS011;57641;51.416;5.506;2022-12-07T15:34:29;3.13;;;1.52;;
70247;SDS011;57641;51.416;5.506;2022-12-07T15:36:55;8.93;;;1.73;;
70247;SDS011;57641;51.416;5.506;2022-12-07T15:39:21;3.63;;;2.08;;
70247;SDS011;57641;51.416;5.506;2022-12-07T15:41:47;4.00;;;1.90;;
70247;SDS011;57641;51.416;5.506;2022-12-07T15:44:12;7.60;;;2.10;;
70247;SDS011;57641;51.416;5.506;2022-12-07T15:46:57;2.53;;;1.98;;
70247;SDS011;57641;51.416;5.506;2022-12-07T15:49:22;5.50;;;2.03;;
70247;SDS011;57641;51.416;5.506;2022-12-07T15:51:48;3.65;;;2.45;;
70247;SDS011;57641;51.416;5.506;2022-12-07T15:54:16;7.43;;;2.42;;
70247;SDS011;57641;51.416;5.506;2022-12-07T15:56:46;3.70;;;2.40;;
70247;SDS011;57641;51.416;5.506;2022-12-07T15:59:12;2.95;;;2.42;;
70247;SDS011;57641;51.416;5.506;2022-12-07T16:01:37;2.55;;;2.03;;
70247;SDS011;57641;51.416;5.506;2022-12-07T16:04:03;6.40;;;2.38;;
70247;SDS011;57641;51.416;5.506;2022-12-07T16:06:29;5.30;;;2.80;;
70247;SDS011;57641;51.416;5.506;2022-12-07T16:08:57;3.05;;;2.28;;
70247;SDS011;57641;51.416;5.506;2022-12-07T16:11:23;4.95;;;2.58;;
70247;SDS011;57641;51.416;5.506;2022-12-07T16:13:48;5.93;;;2.80;;
70247;SDS011;57641;51.416;5.506;2022-12-07T16:16:15;4.63;;;2.20;;
70247;SDS011;57641;51.416;5.506;2022-12-07T16:18:43;2.60;;;2.22;;
70247;SDS011;57641;51.416;5.506;2022-12-07T16:21:10;4.45;;;2.53;;
70247;SDS011;57641;51.416;5.506;2022-12-07T16:23:35;4.47;;;2.28;;
70247;SDS011;57641;51.416;5.506;2022-12-07T16:26:06;3.50;;;2.28;;
70247;SDS011;57641;51.416;5.506;2022-12-07T16:28:37;4.88;;;2.42;;
70247;SDS011;57641;51.416;5.506;2022-12-07T16:31:07;5.32;;;2.42;;
70247;SDS011;57641;51.416;5.506;2022-12-07T16:33:36;4.65;;;2.42;;
70247;SDS011;57641;51.416;5.506;2022-12-07T16:36:03;3.97;;;2.53;;
70247;SDS011;57641;51.416;5.506;2022-12-07T16:38:31;4.70;;;2.60;;
70247;SDS011;57641;51.416;5.506;2022-12-07T16:40:57;4.32;;;2.70;;
70247;SDS011;57641;51.416;5.506;2022-12-07T16:43:23;5.93;;;2.65;;